sensor_id;sensor_type;location;lat;lon;timestamp;pressure;altitude;pressure_sealevel;temperature;humidity
30302;BME280;17111;52.130;5.028;2023-08-08T00:00:21;101506.25;;;22.02;54.16
30302;BME280;17111;52.130;5.028;2023-08-08T00:02:47;101515.19;;;22.03;54.02
30302;BME280;17111;52.130;5.028;2023-08-08T00:05:14;101508.94;;;22.02;54.13
30302;BME280;17111;52.130;5.028;2023-08-08T00:07:41;101508.94;;;22.02;54.21
30302;BME280;17111;52.130;5.028;2023-08-08T00:10:08;101506.25;;;22.02;54.12
30302;BME280;17111;52.130;5.028;2023-08-08T00:12:34;101514.34;;;22.02;54.05
30302;BME280;17111;52.130;5.028;2023-08-08T00:15:01;101504.38;;;22.03;54.18
30302;BME280;17111;52.130;5.028;2023-08-08T00:17:28;101505.25;;;22.03;54.35
30302;BME280;17111;52.130;5.028;2023-08-08T00:19:55;101498.97;;;22.03;54.27
30302;BME280;17111;52.130;5.028;2023-08-08T00:22:21;101507.25;;;22.01;54.02
30302;BME280;17111;52.130;5.028;2023-08-08T00:24:48;101505.41;;;22.02;54.10
30302;BME280;17111;52.130;5.028;2023-08-08T00:27:15;101507.25;;;22.01;54.72
30302;BME280;17111;52.130;5.028;2023-08-08T00:29:41;101506.41;;;22.01;54.18
30302;BME280;17111;52.130;5.028;2023-08-08T00:32:08;101501.03;;;22.01;54.48
30302;BME280;17111;52.130;5.028;2023-08-08T00:34:34;101500.19;;;22.00;53.92
30302;BME280;17111;52.130;5.028;2023-08-08T00:37:01;101493.94;;;22.00;54.49
30302;BME280;17111;52.130;5.028;2023-08-08T00:39:28;101485.84;;;22.00;54.74
30302;BME280;17111;52.130;5.028;2023-08-08T00:41:54;101489.38;;;22.00;54.34
30302;BME280;17111;52.130;5.028;2023-08-08T00:44:21;101482.28;;;21.99;54.05
30302;BME280;17111;52.130;5.028;2023-08-08T00:46:48;101493.09;;;21.99;54.48
30302;BME280;17111;52.130;5.028;2023-08-08T00:49:15;101495.78;;;21.99;54.56
30302;BME280;17111;52.130;5.028;2023-08-08T00:51:42;101493.25;;;21.98;54.46
30302;BME280;17111;52.130;5.028;2023-08-08T00:54:09;101497.63;;;21.99;54.60
30302;BME280;17111;52.130;5.028;2023-08-08T00:56:36;101490.53;;;21.98;54.54
30302;BME280;17111;52.130;5.028;2023-08-08T00:59:03;101485.97;;;21.98;54.45
30302;BME280;17111;52.130;5.028;2023-08-08T01:01:30;101487.84;;;21.98;54.63
30302;BME280;17111;52.130;5.028;2023-08-08T01:03:57;101487.00;;;21.97;54.56
30302;BME280;17111;52.130;5.028;2023-08-08T01:07:06;101487.31;;;21.94;54.70
30302;BME280;17111;52.130;5.028;2023-08-08T01:09:41;101483.47;;;21.97;54.54
30302;BME280;17111;52.130;5.028;2023-08-08T01:12:10;101487.31;;;21.94;54.70
30302;BME280;17111;52.130;5.028;2023-08-08T01:14:38;101485.31;;;21.96;54.51
30302;BME280;17111;52.130;5.028;2023-08-08T01:17:05;101488.16;;;21.94;54.58
30302;BME280;17111;52.130;5.028;2023-08-08T01:19:32;101480.25;;;21.93;54.45
30302;BME280;17111;52.130;5.028;2023-08-08T01:22:10;101481.25;;;21.92;54.63
30302;BME280;17111;52.130;5.028;2023-08-08T01:24:41;101482.94;;;21.93;54.52
30302;BME280;17111;52.130;5.028;2023-08-08T01:27:07;101483.97;;;21.92;54.82
30302;BME280;17111;52.130;5.028;2023-08-08T01:29:34;101480.41;;;21.91;54.82
30302;BME280;17111;52.130;5.028;2023-08-08T01:32:00;101476.88;;;21.91;54.59
30302;BME280;17111;52.130;5.028;2023-08-08T01:34:28;101482.28;;;21.91;54.82
30302;BME280;17111;52.130;5.028;2023-08-08T01:37:02;101477.88;;;21.90;54.75
30302;BME280;17111;52.130;5.028;2023-08-08T01:39:32;101474.19;;;21.91;54.64
30302;BME280;17111;52.130;5.028;2023-08-08T01:41:59;101481.41;;;21.90;54.81
30302;BME280;17111;52.130;5.028;2023-08-08T01:44:28;101481.41;;;21.90;54.86
30302;BME280;17111;52.130;5.028;2023-08-08T01:46:54;101482.41;;;21.89;55.00
30302;BME280;17111;52.130;5.028;2023-08-08T01:49:21;101482.41;;;21.89;54.77
30302;BME280;17111;52.130;5.028;2023-08-08T01:51:48;101475.34;;;21.88;54.63
30302;BME280;17111;52.130;5.028;2023-08-08T01:54:15;101462.84;;;21.87;54.83
30302;BME280;17111;52.130;5.028;2023-08-08T01:56:41;101466.41;;;21.88;54.82
30302;BME280;17111;52.130;5.028;2023-08-08T01:59:08;101463.84;;;21.86;54.98
30302;BME280;17111;52.130;5.028;2023-08-08T02:01:34;101459.28;;;21.87;nan
30302;BME280;17111;52.130;5.028;2023-08-08T02:04:01;101461.00;;;21.88;55.13
30302;BME280;17111;52.130;5.028;2023-08-08T02:06:28;101454.91;;;21.86;55.12
30302;BME280;17111;52.130;5.028;2023-08-08T02:08:54;101459.47;;;21.85;54.80
30302;BME280;17111;52.130;5.028;2023-08-08T02:11:21;101453.22;;;21.85;54.58
30302;BME280;17111;52.130;5.028;2023-08-08T02:13:48;101455.94;;;21.85;55.14
30302;BME280;17111;52.130;5.028;2023-08-08T02:16:14;101457.78;;;21.84;55.13
30302;BME280;17111;52.130;5.028;2023-08-08T02:18:41;101454.25;;;21.84;55.12
30302;BME280;17111;52.130;5.028;2023-08-08T02:21:08;101447.00;;;21.84;55.02
30302;BME280;17111;52.130;5.028;2023-08-08T02:23:34;101448.00;;;21.83;54.93
30302;BME280;17111;52.130;5.028;2023-08-08T02:26:01;101444.44;;;21.83;54.78
30302;BME280;17111;52.130;5.028;2023-08-08T02:28:28;101436.34;;;21.83;54.81
30302;BME280;17111;52.130;5.028;2023-08-08T02:30:54;101446.16;;;21.84;54.97
30302;BME280;17111;52.130;5.028;2023-08-08T02:33:21;101440.88;;;21.82;55.24
30302;BME280;17111;52.130;5.028;2023-08-08T02:35:48;101446.47;;;21.81;55.07
30302;BME280;17111;52.130;5.028;2023-08-08T02:38:15;101447.31;;;21.81;55.06
30302;BME280;17111;52.130;5.028;2023-08-08T02:40:41;101452.69;;;21.81;54.96
30302;BME280;17111;52.130;5.028;2023-08-08T02:43:08;101448.16;;;21.82;55.21
30302;BME280;17111;52.130;5.028;2023-08-08T02:45:35;101451.88;;;21.81;54.80
30302;BME280;17111;52.130;5.028;2023-08-08T02:48:02;101439.38;;;21.80;55.11
30302;BME280;17111;52.130;5.028;2023-08-08T02:50:29;101439.38;;;21.80;54.95
30302;BME280;17111;52.130;5.028;2023-08-08T02:52:57;101437.69;;;21.79;54.95
30302;BME280;17111;52.130;5.028;2023-08-08T02:55:23;101437.69;;;21.79;55.17
30302;BME280;17111;52.130;5.028;2023-08-08T02:57:50;101443.94;;;21.79;55.19
30302;BME280;17111;52.130;5.028;2023-08-08T03:00:16;101442.22;;;21.78;55.28
30302;BME280;17111;52.130;5.028;2023-08-08T03:02:43;101444.09;;;21.78;55.12
30302;BME280;17111;52.130;5.028;2023-08-08T03:05:10;101434.31;;;21.77;55.31
30302;BME280;17111;52.130;5.028;2023-08-08T03:07:36;101433.47;;;21.76;55.07
30302;BME280;17111;52.130;5.028;2023-08-08T03:10:04;101430.78;;;21.76;55.21
30302;BME280;17111;52.130;5.028;2023-08-08T03:12:31;101435.31;;;21.76;55.20
30302;BME280;17111;52.130;5.028;2023-08-08T03:14:57;101435.31;;;21.76;55.25
30302;BME280;17111;52.130;5.028;2023-08-08T03:17:24;101438.03;;;21.76;55.15
30302;BME280;17111;52.130;5.028;2023-08-08T03:19:51;101434.50;;;21.75;55.22
30302;BME280;17111;52.130;5.028;2023-08-08T03:22:17;101429.09;;;21.75;55.46
30302;BME280;17111;52.130;5.028;2023-08-08T03:24:44;101425.53;;;21.75;55.35
30302;BME280;17111;52.130;5.028;2023-08-08T03:27:11;101420.13;;;21.75;55.21
30302;BME280;17111;52.130;5.028;2023-08-08T03:29:37;101416.75;;;21.73;55.13
30302;BME280;17111;52.130;5.028;2023-08-08T03:32:04;101419.47;;;21.73;55.03
30302;BME280;17111;52.130;5.028;2023-08-08T03:34:31;101417.78;;;21.72;55.56
30302;BME280;17111;52.130;5.028;2023-08-08T03:36:59;101415.06;;;21.72;55.22
30302;BME280;17111;52.130;5.028;2023-08-08T03:39:25;101419.63;;;21.71;55.09
30302;BME280;17111;52.130;5.028;2023-08-08T03:41:53;101423.31;;;21.70;55.35
30302;BME280;17111;52.130;5.028;2023-08-08T03:44:19;101422.47;;;21.69;55.48
30302;BME280;17111;52.130;5.028;2023-08-08T03:46:46;101417.09;;;21.69;55.41
30302;BME280;17111;52.130;5.028;2023-08-08T03:49:13;101422.47;;;21.69;55.45
30302;BME280;17111;52.130;5.028;2023-08-08T03:51:40;101426.19;;;21.68;55.39
30302;BME280;17111;52.130;5.028;2023-08-08T03:54:06;101415.41;;;21.68;55.41
30302;BME280;17111;52.130;5.028;2023-08-08T03:56:33;101417.25;;;21.68;55.49
30302;BME280;17111;52.130;5.028;2023-08-08T03:58:59;101414.56;;;21.68;55.51
30302;BME280;17111;52.130;5.028;2023-08-08T04:01:26;101411.03;;;21.67;55.38
30302;BME280;17111;52.130;5.028;2023-08-08T04:03:53;101409.31;;;21.66;55.56
30302;BME280;17111;52.130;5.028;2023-08-08T04:06:19;101403.91;;;21.66;55.87
30302;BME280;17111;52.130;5.028;2023-08-08T04:08:46;101402.94;;;21.67;55.66
30302;BME280;17111;52.130;5.028;2023-08-08T04:11:12;101404.09;;;21.65;55.85
30302;BME280;17111;52.130;5.028;2023-08-08T04:13:39;101398.69;;;21.65;55.88
30302;BME280;17111;52.130;5.028;2023-08-08T04:16:06;101403.25;;;21.64;55.66
30302;BME280;17111;52.130;5.028;2023-08-08T04:18:32;101401.56;;;21.63;55.93
30302;BME280;17111;52.130;5.028;2023-08-08T04:21:00;101399.84;;;21.62;55.76
30302;BME280;17111;52.130;5.028;2023-08-08T04:23:26;101395.31;;;21.63;55.81
30302;BME280;17111;52.130;5.028;2023-08-08T04:25:53;101399.84;;;21.62;55.63
30302;BME280;17111;52.130;5.028;2023-08-08T04:28:20;101400.03;;;21.61;55.72
30302;BME280;17111;52.130;5.028;2023-08-08T04:30:46;101408.13;;;21.61;55.67
30302;BME280;17111;52.130;5.028;2023-08-08T04:33:13;101401.03;;;21.60;55.55
30302;BME280;17111;52.130;5.028;2023-08-08T04:35:40;101394.81;;;21.59;55.96
30302;BME280;17111;52.130;5.028;2023-08-08T04:38:06;101392.09;;;21.59;55.52
30302;BME280;17111;52.130;5.028;2023-08-08T04:40:33;101395.78;;;21.58;55.28
30302;BME280;17111;52.130;5.028;2023-08-08T04:43:01;101405.59;;;21.59;55.49
30302;BME280;17111;52.130;5.028;2023-08-08T04:45:28;101403.03;;;21.58;55.51
30302;BME280;17111;52.130;5.028;2023-08-08T04:47:55;101409.28;;;21.58;55.69
30302;BME280;17111;52.130;5.028;2023-08-08T04:50:22;101411.97;;;21.58;55.61
30302;BME280;17111;52.130;5.028;2023-08-08T04:52:48;101404.91;;;21.57;55.45
30302;BME280;17111;52.130;5.028;2023-08-08T04:55:15;101413.84;;;21.58;55.17
30302;BME280;17111;52.130;5.028;2023-08-08T04:57:42;101413.84;;;21.58;55.39
30302;BME280;17111;52.130;5.028;2023-08-08T05:00:08;101409.28;;;21.58;55.46
30302;BME280;17111;52.130;5.028;2023-08-08T05:02:35;101407.47;;;21.59;55.40
30302;BME280;17111;52.130;5.028;2023-08-08T05:05:02;101408.13;;;21.61;55.32
30302;BME280;17111;52.130;5.028;2023-08-08T05:07:29;101408.97;;;21.61;55.60
30302;BME280;17111;52.130;5.028;2023-08-08T05:09:56;101405.25;;;21.62;55.60
30302;BME280;17111;52.130;5.028;2023-08-08T05:12:23;101407.81;;;21.64;55.24
30302;BME280;17111;52.130;5.028;2023-08-08T05:14:51;101406.78;;;21.65;55.34
30302;BME280;17111;52.130;5.028;2023-08-08T05:17:18;101413.84;;;21.66;55.69
30302;BME280;17111;52.130;5.028;2023-08-08T05:19:45;101413.72;;;21.67;55.46
30302;BME280;17111;52.130;5.028;2023-08-08T05:22:11;101413.53;;;21.69;55.41
30302;BME280;17111;52.130;5.028;2023-08-08T05:24:38;101400.88;;;21.69;55.49
30302;BME280;17111;52.130;5.028;2023-08-08T05:27:05;101402.56;;;21.71;55.44
30302;BME280;17111;52.130;5.028;2023-08-08T05:29:31;101401.59;;;21.72;55.27
30302;BME280;17111;52.130;5.028;2023-08-08T05:31:58;101407.66;;;21.74;55.16
30302;BME280;17111;52.130;5.028;2023-08-08T05:34:25;101408.34;;;21.76;55.24
30302;BME280;17111;52.130;5.028;2023-08-08T05:36:52;101407.31;;;21.77;55.15
30302;BME280;17111;52.130;5.028;2023-08-08T05:39:38;101412.41;;;21.80;54.95
30302;BME280;17111;52.130;5.028;2023-08-08T05:42:05;101409.53;;;21.81;55.09
30302;BME280;17111;52.130;5.028;2023-08-08T05:44:32;101408.50;;;21.82;55.00
30302;BME280;17111;52.130;5.028;2023-08-08T05:46:59;101414.59;;;21.84;55.20
30302;BME280;17111;52.130;5.028;2023-08-08T05:49:25;101416.28;;;21.85;55.22
30302;BME280;17111;52.130;5.028;2023-08-08T05:51:52;101413.59;;;21.85;55.28
30302;BME280;17111;52.130;5.028;2023-08-08T05:54:19;101415.13;;;21.88;55.13
30302;BME280;17111;52.130;5.028;2023-08-08T05:56:45;101419.50;;;21.89;54.98
30302;BME280;17111;52.130;5.028;2023-08-08T05:59:12;101418.66;;;21.88;55.24
30302;BME280;17111;52.130;5.028;2023-08-08T06:01:39;101423.22;;;21.88;55.02
30302;BME280;17111;52.130;5.028;2023-08-08T06:04:05;101432.16;;;21.88;55.13
30302;BME280;17111;52.130;5.028;2023-08-08T06:06:32;101423.38;;;21.86;55.30
30302;BME280;17111;52.130;5.028;2023-08-08T06:08:58;101425.91;;;21.88;55.34
30302;BME280;17111;52.130;5.028;2023-08-08T06:11:25;101425.06;;;21.87;55.43
30302;BME280;17111;52.130;5.028;2023-08-08T06:13:52;101428.63;;;21.88;55.27
30302;BME280;17111;52.130;5.028;2023-08-08T06:16:18;101431.31;;;21.88;55.04
30302;BME280;17111;52.130;5.028;2023-08-08T06:18:45;101427.59;;;21.89;55.27
30302;BME280;17111;52.130;5.028;2023-08-08T06:21:11;101433.00;;;21.89;54.96
30302;BME280;17111;52.130;5.028;2023-08-08T06:23:38;101431.31;;;21.88;54.82
30302;BME280;17111;52.130;5.028;2023-08-08T06:26:05;101432.16;;;21.88;55.04
30302;BME280;17111;52.130;5.028;2023-08-08T06:28:32;101431.13;;;21.89;54.80
30302;BME280;17111;52.130;5.028;2023-08-08T06:30:58;101431.97;;;21.90;54.83
30302;BME280;17111;52.130;5.028;2023-08-08T06:33:25;101424.72;;;21.90;54.67
30302;BME280;17111;52.130;5.028;2023-08-08T06:35:52;101431.97;;;21.90;54.76
30302;BME280;17111;52.130;5.028;2023-08-08T06:38:18;101444.50;;;21.91;54.74
30302;BME280;17111;52.130;5.028;2023-08-08T06:40:45;101435.53;;;21.90;54.61
30302;BME280;17111;52.130;5.028;2023-08-08T06:43:11;101443.63;;;21.90;54.63
30302;BME280;17111;52.130;5.028;2023-08-08T06:45:38;101425.59;;;21.91;54.44
30302;BME280;17111;52.130;5.028;2023-08-08T06:48:05;101440.91;;;21.90;54.29
30302;BME280;17111;52.130;5.028;2023-08-08T06:50:32;101433.69;;;21.91;54.25
30302;BME280;17111;52.130;5.028;2023-08-08T06:52:59;101434.69;;;21.90;54.54
30302;BME280;17111;52.130;5.028;2023-08-08T06:55:25;101445.47;;;21.90;54.36
30302;BME280;17111;52.130;5.028;2023-08-08T06:57:52;101440.06;;;21.90;54.33
30302;BME280;17111;52.130;5.028;2023-08-08T07:00:19;101433.84;;;21.89;54.38
30302;BME280;17111;52.130;5.028;2023-08-08T07:02:46;101440.06;;;21.90;54.58
30302;BME280;17111;52.130;5.028;2023-08-08T07:05:13;101442.78;;;21.90;54.54
30302;BME280;17111;52.130;5.028;2023-08-08T07:07:39;101431.97;;;21.90;54.40
30302;BME280;17111;52.130;5.028;2023-08-08T07:10:06;101446.31;;;21.90;54.29
30302;BME280;17111;52.130;5.028;2023-08-08T07:12:33;101439.22;;;21.89;54.25
30302;BME280;17111;52.130;5.028;2023-08-08T07:15:00;101441.78;;;21.91;54.50
30302;BME280;17111;52.130;5.028;2023-08-08T07:17:26;101444.50;;;21.91;54.37
30302;BME280;17111;52.130;5.028;2023-08-08T07:19:53;101443.47;;;21.92;54.31
30302;BME280;17111;52.130;5.028;2023-08-08T07:22:20;101448.03;;;21.91;54.18
30302;BME280;17111;52.130;5.028;2023-08-08T07:24:47;101437.06;;;21.93;54.23
30302;BME280;17111;52.130;5.028;2023-08-08T07:27:13;101434.53;;;21.91;54.19
30302;BME280;17111;52.130;5.028;2023-08-08T07:29:40;101438.91;;;21.92;54.39
30302;BME280;17111;52.130;5.028;2023-08-08T07:32:07;101430.81;;;21.92;54.13
30302;BME280;17111;52.130;5.028;2023-08-08T07:34:33;101430.81;;;21.92;54.07
30302;BME280;17111;52.130;5.028;2023-08-08T07:37:00;101424.41;;;21.93;54.18
30302;BME280;17111;52.130;5.028;2023-08-08T07:39:26;101417.97;;;21.94;53.92
30302;BME280;17111;52.130;5.028;2023-08-08T07:41:53;101425.25;;;21.94;53.93
30302;BME280;17111;52.130;5.028;2023-08-08T07:44:21;101422.41;;;21.96;53.88
30302;BME280;17111;52.130;5.028;2023-08-08T07:46:47;101417.84;;;21.96;53.94
30302;BME280;17111;52.130;5.028;2023-08-08T07:49:14;101415.13;;;21.96;54.01
30302;BME280;17111;52.130;5.028;2023-08-08T07:51:41;101419.50;;;21.97;53.82
30302;BME280;17111;52.130;5.028;2023-08-08T07:54:07;101415.81;;;21.98;53.81
30302;BME280;17111;52.130;5.028;2023-08-08T07:56:35;101422.03;;;21.99;53.66
30302;BME280;17111;52.130;5.028;2023-08-08T07:59:03;101409.41;;;21.99;53.53
30302;BME280;17111;52.130;5.028;2023-08-08T08:01:29;101421.91;;;22.00;53.76
30302;BME280;17111;52.130;5.028;2023-08-08T08:03:56;101411.09;;;22.00;53.52
30302;BME280;17111;52.130;5.028;2023-08-08T08:06:23;101415.47;;;22.01;53.34
30302;BME280;17111;52.130;5.028;2023-08-08T08:08:50;101420.69;;;22.03;53.33
30302;BME280;17111;52.130;5.028;2023-08-08T08:11:16;101414.31;;;22.04;53.44
30302;BME280;17111;52.130;5.028;2023-08-08T08:13:43;101416.00;;;22.05;53.27
30302;BME280;17111;52.130;5.028;2023-08-08T08:16:10;101416.84;;;22.05;53.56
30302;BME280;17111;52.130;5.028;2023-08-08T08:18:36;101413.94;;;22.07;53.37
30302;BME280;17111;52.130;5.028;2023-08-08T08:21:03;101422.94;;;22.07;53.14
30302;BME280;17111;52.130;5.028;2023-08-08T08:23:31;101428.16;;;22.09;53.14
30302;BME280;17111;52.130;5.028;2023-08-08T08:25:59;101429.81;;;22.10;53.35
30302;BME280;17111;52.130;5.028;2023-08-08T08:28:26;101424.28;;;22.11;53.19
30302;BME280;17111;52.130;5.028;2023-08-08T08:30:53;101424.13;;;22.13;53.13
30302;BME280;17111;52.130;5.028;2023-08-08T08:33:19;101422.28;;;22.13;52.91
30302;BME280;17111;52.130;5.028;2023-08-08T08:35:46;101423.13;;;22.14;53.13
30302;BME280;17111;52.130;5.028;2023-08-08T08:38:13;101429.34;;;22.14;52.89
30302;BME280;17111;52.130;5.028;2023-08-08T08:40:41;101419.41;;;22.15;52.75
30302;BME280;17111;52.130;5.028;2023-08-08T08:43:09;101418.41;;;22.16;53.04
30302;BME280;17111;52.130;5.028;2023-08-08T08:45:38;101428.38;;;22.15;52.72
30302;BME280;17111;52.130;5.028;2023-08-08T08:48:10;101436.47;;;22.15;52.93
30302;BME280;17111;52.130;5.028;2023-08-08T08:50:38;101423.81;;;22.16;52.78
30302;BME280;17111;52.130;5.028;2023-08-08T08:53:06;101428.19;;;22.17;52.72
30302;BME280;17111;52.130;5.028;2023-08-08T08:55:33;101426.34;;;22.17;52.75
30302;BME280;17111;52.130;5.028;2023-08-08T08:58:00;101430.72;;;22.18;52.55
30302;BME280;17111;52.130;5.028;2023-08-08T09:00:28;101435.28;;;22.18;52.38
30302;BME280;17111;52.130;5.028;2023-08-08T09:02:56;101439.66;;;22.19;52.68
30302;BME280;17111;52.130;5.028;2023-08-08T09:05:25;101434.25;;;22.19;52.67
30302;BME280;17111;52.130;5.028;2023-08-08T09:07:52;101422.28;;;22.22;52.65
30302;BME280;17111;52.130;5.028;2023-08-08T09:10:19;101442.88;;;22.23;52.51
30302;BME280;17111;52.130;5.028;2023-08-08T09:12:46;101432.94;;;22.23;52.67
30302;BME280;17111;52.130;5.028;2023-08-08T09:15:12;101435.63;;;22.23;52.70
30302;BME280;17111;52.130;5.028;2023-08-08T09:17:43;101438.16;;;22.25;52.59
30302;BME280;17111;52.130;5.028;2023-08-08T09:20:15;101440.84;;;22.25;52.46
30302;BME280;17111;52.130;5.028;2023-08-08T09:22:43;101435.28;;;22.26;52.27
30302;BME280;17111;52.130;5.028;2023-08-08T09:25:09;101438.81;;;22.27;52.40
30302;BME280;17111;52.130;5.028;2023-08-08T09:27:36;101435.13;;;22.28;52.40
30302;BME280;17111;52.130;5.028;2023-08-08T09:30:04;101440.34;;;22.29;52.11
30302;BME280;17111;52.130;5.028;2023-08-08T09:32:31;101441.03;;;22.31;52.41
30302;BME280;17111;52.130;5.028;2023-08-08T09:34:59;101449.81;;;22.33;52.23
30302;BME280;17111;52.130;5.028;2023-08-08T09:37:26;101439.69;;;22.35;52.03
30302;BME280;17111;52.130;5.028;2023-08-08T09:39:56;101438.81;;;22.35;52.21
30302;BME280;17111;52.130;5.028;2023-08-08T09:42:25;101444.75;;;22.38;52.03
30302;BME280;17111;52.130;5.028;2023-08-08T09:44:52;101451.84;;;22.39;51.58
30302;BME280;17111;52.130;5.028;2023-08-08T09:47:21;101437.16;;;22.42;51.72
30302;BME280;17111;52.130;5.028;2023-08-08T09:49:48;101441.53;;;22.43;51.50
30302;BME280;17111;52.130;5.028;2023-08-08T09:52:16;101447.63;;;22.45;51.80
30302;BME280;17111;52.130;5.028;2023-08-08T09:54:43;101450.84;;;22.49;51.62
30302;BME280;17111;52.130;5.028;2023-08-08T09:57:10;101443.56;;;22.49;51.67
30302;BME280;17111;52.130;5.028;2023-08-08T09:59:37;101438.84;;;22.51;51.71
30302;BME280;17111;52.130;5.028;2023-08-08T10:02:04;101445.75;;;22.54;51.61
30302;BME280;17111;52.130;5.028;2023-08-08T10:04:32;101454.38;;;22.57;51.49
30302;BME280;17111;52.130;5.028;2023-08-08T10:06:59;101453.03;;;22.61;51.22
30302;BME280;17111;52.130;5.028;2023-08-08T10:09:26;101442.72;;;22.65;50.80
30302;BME280;17111;52.130;5.028;2023-08-08T10:11:54;101445.09;;;22.68;51.00
30302;BME280;17111;52.130;5.028;2023-08-08T10:14:31;101441.19;;;22.71;50.37
30302;BME280;17111;52.130;5.028;2023-08-08T10:16:58;101441.88;;;22.73;50.47
30302;BME280;17111;52.130;5.028;2023-08-08T10:19:25;101452.38;;;22.76;50.52
30302;BME280;17111;52.130;5.028;2023-08-08T10:21:58;101449.66;;;22.76;50.39
30302;BME280;17111;52.130;5.028;2023-08-08T10:24:25;101456.75;;;22.77;50.77
30302;BME280;17111;52.130;5.028;2023-08-08T10:26:56;101446.59;;;22.79;50.54
30302;BME280;17111;52.130;5.028;2023-08-08T10:29:25;101445.75;;;22.78;50.51
30302;BME280;17111;52.130;5.028;2023-08-08T10:32:04;101444.91;;;22.78;50.34
30302;BME280;17111;52.130;5.028;2023-08-08T10:34:43;101443.88;;;22.79;50.29
30302;BME280;17111;52.130;5.028;2023-08-08T10:37:11;101441.19;;;22.79;50.31
30302;BME280;17111;52.130;5.028;2023-08-08T10:39:57;101447.44;;;22.79;50.62
30302;BME280;17111;52.130;5.028;2023-08-08T10:42:26;101455.38;;;22.81;50.77
30302;BME280;17111;52.130;5.028;2023-08-08T10:44:58;101451.66;;;22.82;50.25
30302;BME280;17111;52.130;5.028;2023-08-08T10:47:30;101447.94;;;22.83;50.67
30302;BME280;17111;52.130;5.028;2023-08-08T10:49:59;101456.03;;;22.83;50.51
30302;BME280;17111;52.130;5.028;2023-08-08T10:52:26;101452.16;;;22.85;50.05
30302;BME280;17111;52.130;5.028;2023-08-08T10:54:53;101452.88;;;22.87;50.38
30302;BME280;17111;52.130;5.028;2023-08-08T10:57:26;101453.00;;;22.86;50.27
30302;BME280;17111;52.130;5.028;2023-08-08T10:59:53;101443.03;;;22.86;50.48
30302;BME280;17111;52.130;5.028;2023-08-08T11:02:21;101446.59;;;22.87;50.34
30302;BME280;17111;52.130;5.028;2023-08-08T11:04:48;101451.00;;;22.88;49.88
30302;BME280;17111;52.130;5.028;2023-08-08T11:07:17;101445.59;;;22.88;50.63
30302;BME280;17111;52.130;5.028;2023-08-08T11:09:44;101454.53;;;22.88;50.24
30302;BME280;17111;52.130;5.028;2023-08-08T11:12:14;101451.00;;;22.88;50.32
30302;BME280;17111;52.130;5.028;2023-08-08T11:14:41;101449.97;;;22.89;50.30
30302;BME280;17111;52.130;5.028;2023-08-08T11:17:10;101446.25;;;22.90;50.47
30302;BME280;17111;52.130;5.028;2023-08-08T11:19:41;101455.22;;;22.90;50.37
30302;BME280;17111;52.130;5.028;2023-08-08T11:22:10;101449.66;;;22.92;50.26
30302;BME280;17111;52.130;5.028;2023-08-08T11:24:40;101461.16;;;22.94;50.21
30302;BME280;17111;52.130;5.028;2023-08-08T11:27:07;101441.19;;;22.95;50.16
30302;BME280;17111;52.130;5.028;2023-08-08T11:29:33;101441.88;;;22.97;50.00
30302;BME280;17111;52.130;5.028;2023-08-08T11:32:00;101447.09;;;22.99;50.09
30302;BME280;17111;52.130;5.028;2023-08-08T11:34:31;101455.91;;;23.01;49.92
30302;BME280;17111;52.130;5.028;2023-08-08T11:37:00;101452.19;;;23.02;49.95
30302;BME280;17111;52.130;5.028;2023-08-08T11:39:27;101449.13;;;23.05;49.82
30302;BME280;17111;52.130;5.028;2023-08-08T11:41:55;101447.78;;;23.09;49.59
30302;BME280;17111;52.130;5.028;2023-08-08T11:44:24;101445.91;;;23.09;49.49
30302;BME280;17111;52.130;5.028;2023-08-08T11:46:51;101451.31;;;23.09;49.95
30302;BME280;17111;52.130;5.028;2023-08-08T11:49:18;101452.16;;;23.10;49.83
30302;BME280;17111;52.130;5.028;2023-08-08T11:51:45;101449.47;;;23.10;49.57
30302;BME280;17111;52.130;5.028;2023-08-08T11:54:12;101443.38;;;23.08;49.79
30302;BME280;17111;52.130;5.028;2023-08-08T11:56:39;101444.38;;;23.07;50.01
30302;BME280;17111;52.130;5.028;2023-08-08T11:59:06;101445.22;;;23.07;49.92
30302;BME280;17111;52.130;5.028;2023-08-08T12:01:33;101440.84;;;23.06;49.74
30302;BME280;17111;52.130;5.028;2023-08-08T12:04:08;101444.38;;;23.07;49.41
30302;BME280;17111;52.130;5.028;2023-08-08T12:06:37;101437.09;;;23.07;49.94
30302;BME280;17111;52.130;5.028;2023-08-08T12:09:05;101437.09;;;23.07;49.63
30302;BME280;17111;52.130;5.028;2023-08-08T12:11:36;101439.81;;;23.07;49.69
30302;BME280;17111;52.130;5.028;2023-08-08T12:14:07;101434.41;;;23.07;50.12
30302;BME280;17111;52.130;5.028;2023-08-08T12:16:40;101447.78;;;23.09;49.61
30302;BME280;17111;52.130;5.028;2023-08-08T12:19:08;101445.91;;;23.09;49.82
30302;BME280;17111;52.130;5.028;2023-08-08T12:21:37;101440.50;;;23.09;49.85
30302;BME280;17111;52.130;5.028;2023-08-08T12:24:04;101441.53;;;23.08;49.53
30302;BME280;17111;52.130;5.028;2023-08-08T12:26:31;101442.38;;;23.09;49.71
30302;BME280;17111;52.130;5.028;2023-08-08T12:28:58;101438.81;;;23.08;50.18
30302;BME280;17111;52.130;5.028;2023-08-08T12:31:25;101456.72;;;23.09;49.76
30302;BME280;17111;52.130;5.028;2023-08-08T12:33:51;101451.31;;;23.09;49.92
30302;BME280;17111;52.130;5.028;2023-08-08T12:36:20;101440.50;;;23.09;49.88
30302;BME280;17111;52.130;5.028;2023-08-08T12:38:47;101453.00;;;23.10;50.31
30302;BME280;17111;52.130;5.028;2023-08-08T12:41:14;101443.88;;;23.11;49.81
30302;BME280;17111;52.130;5.028;2023-08-08T12:43:40;101441.16;;;23.11;49.42
30302;BME280;17111;52.130;5.028;2023-08-08T12:46:07;101436.63;;;23.12;49.82
30302;BME280;17111;52.130;5.028;2023-08-08T12:48:33;101448.09;;;23.14;49.47
30302;BME280;17111;52.130;5.028;2023-08-08T12:51:00;101452.97;;;23.19;49.32